Time;durP1;ratioP1;P1;durP2;ratioP2;P2;SDS_P1;SDS_P2;PMS_P1;PMS_P2;Temp;Humidity;BMP_temperature;BMP_pressure;BME280_temperature;BME280_humidity;BME280_pressure;Samples;Min_cycle;Max_cycle;Signal;HPM_P1;HPM_P2
2023/06/28 00:01:18;;;;;;;10.70;10.40;;;16.00;99.90;;;;;;5041078;28;20227;-79
2023/06/28 00:03:56;;;;;;;10.60;10.30;;;15.80;99.90;;;;;;5050646;28;20231;-80
2023/06/28 00:06:25;;;;;;;10.55;10.25;;;15.70;99.90;;;;;;5045821;28;20235;-79
2023/06/28 00:08:56;;;;;;;10.40;10.10;;;15.60;99.90;;;;;;5041709;28;20227;-80
2023/06/28 00:11:25;;;;;;;9.85;9.55;;;15.60;99.90;;;;;;5041416;28;20231;-79
2023/06/28 00:13:54;;;;;;;10.20;9.90;;;15.60;99.90;;;;;;5041600;28;20291;-79
2023/06/28 00:16:24;;;;;;;10.30;10.00;;;15.60;99.90;;;;;;5042303;28;20239;-78
2023/06/28 00:19:00;;;;;;;10.23;9.93;;;15.60;99.90;;;;;;5041616;28;20262;-78
2023/06/28 00:21:31;;;;;;;10.13;9.82;;;15.60;99.90;;;;;;5051096;28;20223;-78
2023/06/28 00:24:02;;;;;;;10.20;9.90;;;15.60;99.90;;;;;;5041377;28;20223;-77
2023/06/28 00:26:31;;;;;;;10.00;9.70;;;15.50;99.90;;;;;;5039622;28;20239;-78
2023/06/28 00:29:00;;;;;;;9.90;9.60;;;15.40;99.90;;;;;;5043691;28;20334;-79
2023/06/28 00:31:31;;;;;;;10.10;9.80;;;15.30;99.90;;;;;;5045660;28;20287;-79
2023/06/28 00:34:00;;;;;;;9.93;9.63;;;15.30;99.90;;;;;;5049559;28;20231;-79
2023/06/28 00:36:29;;;;;;;9.80;9.50;;;15.20;99.90;;;;;;5052391;28;20287;-79
2023/06/28 00:38:59;;;;;;;10.10;9.80;;;15.20;99.90;;;;;;5049682;28;20233;-79
2023/06/28 00:41:28;;;;;;;9.98;9.68;;;15.10;99.90;;;;;;5049387;28;20246;-79
2023/06/28 00:43:58;;;;;;;9.80;9.50;;;15.10;99.90;;;;;;5054681;28;20353;-79
2023/06/28 00:46:27;;;;;;;9.60;9.30;;;15.00;99.90;;;;;;5048658;28;20299;-79
2023/06/28 00:48:56;;;;;;;9.68;9.38;;;15.00;99.90;;;;;;5048326;28;20219;-79
2023/06/28 00:51:37;;;;;;;9.60;9.30;;;15.00;99.90;;;;;;5047864;28;20266;-79
2023/06/28 00:54:05;;;;;;;9.60;9.30;;;15.00;99.90;;;;;;5047906;28;20246;-80
2023/06/28 00:56:34;;;;;;;9.73;9.43;;;15.00;99.90;;;;;;5047535;28;20240;-80
2023/06/28 00:59:04;;;;;;;9.73;9.43;;;14.90;99.90;;;;;;5047710;28;20255;-80
2023/06/28 01:01:34;;;;;;;9.73;9.43;;;14.90;99.90;;;;;;5037163;28;20239;-80
2023/06/28 01:04:05;;;;;;;9.80;9.50;;;14.90;99.90;;;;;;5044138;28;20232;-80
2023/06/28 01:06:41;;;;;;;9.57;9.27;;;15.00;99.90;;;;;;5043779;28;20266;-80
2023/06/28 01:09:11;;;;;;;9.60;9.30;;;15.00;99.90;;;;;;5049320;28;20231;-80
2023/06/28 01:11:39;;;;;;;9.35;9.05;;;15.00;99.90;;;;;;5043098;28;20219;-79
2023/06/28 01:14:09;;;;;;;9.50;9.20;;;14.90;99.90;;;;;;5043151;28;20832;-79
2023/06/28 01:16:39;;;;;;;9.40;9.10;;;15.00;99.90;;;;;;5042744;28;20236;-79
2023/06/28 01:19:08;;;;;;;9.35;9.05;;;15.00;99.90;;;;;;5038992;28;20215;-79
2023/06/28 01:21:46;;;;;;;9.48;9.18;;;15.00;99.90;;;;;;5043218;28;20239;-79
2023/06/28 01:24:15;;;;;;;9.30;9.00;;;15.00;99.90;;;;;;5044017;28;20227;-79
2023/06/28 01:26:45;;;;;;;9.40;9.10;;;15.10;99.90;;;;;;5044823;28;20326;-80
2023/06/28 01:29:14;;;;;;;9.20;8.90;;;15.10;99.90;;;;;;5058184;28;20314;-80
2023/06/28 01:31:44;;;;;;;9.50;9.20;;;15.10;99.90;;;;;;5044949;28;20255;-80
2023/06/28 01:34:13;;;;;;;9.38;9.07;;;15.10;99.90;;;;;;5045768;28;20242;-80
2023/06/28 01:36:42;;;;;;;9.15;8.85;;;15.10;99.90;;;;;;5043256;28;20251;-80
2023/06/28 01:39:12;;;;;;;9.30;9.00;;;15.10;99.90;;;;;;5043299;28;20232;-80
2023/06/28 01:41:51;;;;;;;9.27;8.98;;;15.20;99.90;;;;;;5044093;28;20224;-80
2023/06/28 01:44:19;;;;;;;8.90;8.70;;;15.20;99.90;;;;;;5043997;28;20262;-81
2023/06/28 01:46:49;;;;;;;9.13;8.82;;;15.20;99.90;;;;;;5044628;28;20322;-80
2023/06/28 01:49:38;;;;;;;9.30;9.00;;;15.20;99.90;;;;;;5048586;28;20259;-81
2023/06/28 01:52:06;;;;;;;9.00;8.80;;;15.20;99.90;;;;;;5043094;28;20226;-79
2023/06/28 01:54:36;;;;;;;9.20;8.90;;;15.10;99.90;;;;;;5042486;28;20283;-80
2023/06/28 01:57:07;;;;;;;9.23;8.93;;;15.10;99.90;;;;;;5042346;28;20963;-79
2023/06/28 01:59:35;;;;;;;9.25;8.95;;;15.10;99.90;;;;;;5043129;28;20295;-79
2023/06/28 02:02:04;;;;;;;9.10;8.80;;;15.00;99.90;;;;;;5042775;28;20334;-80
2023/06/28 02:04:32;;;;;;;9.10;8.82;;;15.00;99.90;;;;;;5043271;28;20234;-80
2023/06/28 02:07:01;;;;;;;9.40;9.10;;;15.00;99.90;;;;;;5043347;28;20233;-80
2023/06/28 02:09:31;;;;;;;9.18;8.88;;;15.00;99.90;;;;;;5050878;28;20219;-82
2023/06/28 02:12:01;;;;;;;9.18;8.88;;;15.00;99.90;;;;;;5053993;28;20236;-80
2023/06/28 02:14:31;;;;;;;9.40;9.10;;;15.00;99.90;;;;;;5052859;28;20242;-80
2023/06/28 02:17:00;;;;;;;8.90;8.70;;;15.00;99.90;;;;;;5046869;28;20269;-80
2023/06/28 02:19:34;;;;;;;9.15;8.88;;;15.00;99.90;;;;;;5045015;28;20235;-80
2023/06/28 02:22:01;;;;;;;9.20;8.90;;;15.00;99.90;;;;;;5044312;28;21065;-80
2023/06/28 02:24:30;;;;;;;9.02;8.73;;;15.00;99.90;;;;;;5043986;28;20311;-80
2023/06/28 02:26:59;;;;;;;8.93;8.73;;;15.00;99.90;;;;;;5044252;28;20266;-80
2023/06/28 02:29:27;;;;;;;9.20;8.90;;;15.00;99.90;;;;;;5044479;28;20233;-80
2023/06/28 02:32:00;;;;;;;9.20;8.90;;;15.10;99.90;;;;;;5051099;28;20222;-81
2023/06/28 02:34:28;;;;;;;9.35;9.05;;;15.10;99.90;;;;;;5047646;28;20238;-79
2023/06/28 02:36:57;;;;;;;8.90;8.70;;;15.10;99.90;;;;;;5046590;28;20334;-78
2023/06/28 02:39:26;;;;;;;9.23;8.93;;;15.10;99.90;;;;;;5043983;28;20242;-77
2023/06/28 02:41:56;;;;;;;9.45;9.15;;;15.20;99.90;;;;;;5042178;28;20251;-79
2023/06/28 02:44:23;;;;;;;9.80;9.50;;;15.20;99.90;;;;;;5041257;28;20302;-78
2023/06/28 02:46:55;;;;;;;10.18;9.88;;;15.20;99.90;;;;;;5040147;28;20238;-79
2023/06/28 02:49:26;;;;;;;10.27;9.98;;;15.20;99.90;;;;;;5041325;28;20236;-78
2023/06/28 02:54:31;;;;;;;10.20;9.90;;;15.20;99.90;;;;;;5193698;22;20239;-79
2023/06/28 02:56:59;;;;;;;9.85;9.55;;;15.30;99.90;;;;;;5021703;28;20254;-79
2023/06/28 02:59:29;;;;;;;10.00;9.70;;;15.20;99.90;;;;;;5022337;28;20319;-79
2023/06/28 03:01:57;;;;;;;9.70;9.40;;;15.20;99.90;;;;;;5021530;28;20315;-79
2023/06/28 03:04:32;;;;;;;10.27;9.98;;;15.20;99.90;;;;;;5020953;28;20296;-79
2023/06/28 03:07:00;;;;;;;10.10;9.80;;;15.20;99.90;;;;;;5025203;28;20381;-79
2023/06/28 03:09:29;;;;;;;10.00;9.70;;;15.20;99.90;;;;;;5024898;28;20228;-79
2023/06/28 03:11:59;;;;;;;9.98;9.68;;;15.10;99.90;;;;;;5021743;28;20290;-80
2023/06/28 03:14:26;;;;;;;9.90;9.60;;;15.10;99.90;;;;;;5021073;28;20239;-79
2023/06/28 03:16:57;;;;;;;9.68;9.38;;;15.10;99.90;;;;;;5028799;28;20231;-80
2023/06/28 03:19:27;;;;;;;10.02;9.73;;;15.00;99.90;;;;;;5024652;28;20254;-82
2023/06/28 03:21:56;;;;;;;9.77;9.48;;;15.00;99.90;;;;;;5025189;28;20231;-80
2023/06/28 03:24:26;;;;;;;9.80;9.50;;;15.00;99.90;;;;;;5024065;28;20318;-80
2023/06/28 03:26:55;;;;;;;9.90;9.60;;;14.90;99.90;;;;;;5023721;28;20299;-80
2023/06/28 03:29:24;;;;;;;9.82;9.52;;;14.90;99.90;;;;;;5031099;28;20247;-80
2023/06/28 03:31:55;;;;;;;10.20;9.90;;;14.90;99.90;;;;;;5033305;28;20288;-80
2023/06/28 03:34:24;;;;;;;10.00;9.70;;;14.90;99.90;;;;;;5032899;28;20240;-80
2023/06/28 03:36:56;;;;;;;10.10;9.80;;;15.00;99.90;;;;;;5033627;28;20307;-79
2023/06/28 03:39:23;;;;;;;10.18;9.88;;;15.00;99.90;;;;;;5029166;28;20236;-80
2023/06/28 03:41:53;;;;;;;10.20;9.90;;;15.00;99.90;;;;;;5030015;28;20227;-81
2023/06/28 03:44:21;;;;;;;9.98;9.68;;;15.00;99.90;;;;;;5023192;28;20292;-80
2023/06/28 03:46:50;;;;;;;9.90;9.60;;;15.10;99.90;;;;;;5022659;28;20334;-79
2023/06/28 03:49:20;;;;;;;9.85;9.55;;;15.20;99.90;;;;;;5022963;28;20232;-79
2023/06/28 03:51:49;;;;;;;10.18;9.88;;;15.30;99.90;;;;;;5022798;28;20228;-80
2023/06/28 03:54:25;;;;;;;10.07;9.77;;;15.30;99.90;;;;;;5023073;28;20303;-80
2023/06/28 03:56:57;;;;;;;10.10;9.80;;;15.30;99.90;;;;;;5022727;28;20330;-80
2023/06/28 03:59:28;;;;;;;10.55;10.25;;;15.40;99.90;;;;;;5064335;22;20251;-89
2023/06/28 04:01:56;;;;;;;10.10;9.80;;;15.40;99.90;;;;;;5044434;28;20216;-88
2023/06/28 04:04:25;;;;;;;10.35;10.05;;;15.50;99.90;;;;;;5044971;28;20294;-88
2023/06/28 04:06:55;;;;;;;10.30;10.00;;;15.50;99.90;;;;;;5044747;28;20235;-87
2023/06/28 04:09:33;;;;;;;10.13;9.82;;;15.50;99.90;;;;;;5030063;28;20232;-88
2023/06/28 04:12:04;;;;;;;9.85;9.55;;;15.60;99.90;;;;;;5025483;28;20239;-87
2023/06/28 04:14:32;;;;;;;10.50;10.20;;;15.60;99.90;;;;;;5039616;28;20236;-85
2023/06/28 04:17:01;;;;;;;10.32;10.02;;;15.70;99.90;;;;;;5039447;28;20247;-86
2023/06/28 04:19:33;;;;;;;10.55;10.25;;;15.80;99.90;;;;;;5038508;28;20271;-87
2023/06/28 04:22:02;;;;;;;10.40;10.10;;;15.80;99.90;;;;;;5028919;28;20220;-88
2023/06/28 04:24:40;;;;;;;10.20;9.90;;;15.90;99.90;;;;;;5024909;28;20232;-88
2023/06/28 04:27:10;;;;;;;10.60;10.30;;;15.90;99.90;;;;;;5025106;28;20240;-88
2023/06/28 04:29:40;;;;;;;10.40;10.10;;;16.00;99.90;;;;;;5024595;28;20236;-88
2023/06/28 04:32:28;;;;;;;10.70;10.40;;;16.00;99.90;;;;;;5023972;28;20229;-88
2023/06/28 04:34:58;;;;;;;10.55;10.25;;;16.00;99.90;;;;;;5024741;28;20251;-88
2023/06/28 04:37:27;;;;;;;10.50;10.20;;;16.10;99.90;;;;;;5023818;28;20319;-88
2023/06/28 04:40:03;;;;;;;10.52;10.23;;;16.10;99.90;;;;;;5023728;28;20247;-88
2023/06/28 04:42:32;;;;;;;10.70;10.40;;;16.10;99.90;;;;;;5023859;28;20223;-89
2023/06/28 04:45:02;;;;;;;10.52;10.23;;;16.20;99.90;;;;;;5023955;28;20232;-88
2023/06/28 04:47:31;;;;;;;10.73;10.43;;;16.20;99.90;;;;;;5024434;28;20311;-88
2023/06/28 04:50:02;;;;;;;10.50;10.20;;;16.20;99.90;;;;;;5023942;28;20239;-88
2023/06/28 04:52:30;;;;;;;10.32;10.02;;;16.20;99.90;;;;;;5024464;28;20248;-88
2023/06/28 05:00:34;;;;;;;10.80;10.50;;;16.20;99.90;;;;;;5023741;28;20335;-88
2023/06/28 05:03:03;;;;;;;10.60;10.30;;;16.30;99.90;;;;;;5023224;28;20229;-88
2023/06/28 05:05:32;;;;;;;10.63;10.32;;;16.30;99.90;;;;;;5024396;28;20295;-89
2023/06/28 05:08:03;;;;;;;10.90;10.60;;;16.40;99.90;;;;;;5023326;28;20271;-87
2023/06/28 05:10:35;;;;;;;11.00;10.70;;;16.40;99.90;;;;;;5023611;28;20243;-87
2023/06/28 05:13:10;;;;;;;11.10;10.80;;;16.40;99.90;;;;;;5024784;28;20213;-88
2023/06/28 05:15:40;;;;;;;10.75;10.45;;;16.50;99.90;;;;;;5032729;28;20220;-87
2023/06/28 05:18:09;;;;;;;11.30;11.00;;;16.50;99.90;;;;;;5038939;28;20228;-87
2023/06/28 05:20:38;;;;;;;10.88;10.57;;;16.60;99.90;;;;;;5037747;28;20243;-88
2023/06/28 05:23:17;;;;;;;10.73;10.43;;;16.60;99.90;;;;;;5026905;28;20259;-88
2023/06/28 05:25:55;;;;;;;10.55;10.25;;;16.60;99.90;;;;;;5026710;28;20232;-88
2023/06/28 05:28:25;;;;;;;10.63;10.32;;;16.60;99.90;;;;;;5028110;28;20234;-88
2023/06/28 05:30:53;;;;;;;10.57;10.27;;;16.70;99.90;;;;;;5027217;28;20228;-88
2023/06/28 05:33:23;;;;;;;10.73;10.43;;;16.70;99.90;;;;;;5027644;28;20228;-87
2023/06/28 05:35:52;;;;;;;10.65;10.35;;;16.80;99.90;;;;;;5033055;28;20243;-88
2023/06/28 05:38:23;;;;;;;10.68;10.38;;;16.90;99.90;;;;;;5028759;28;20259;-88
2023/06/28 05:41:00;;;;;;;10.70;10.40;;;17.00;99.90;;;;;;5027640;28;20240;-88
2023/06/28 05:43:31;;;;;;;10.32;10.02;;;17.10;99.90;;;;;;5027536;28;20232;-88
2023/06/28 05:46:00;;;;;;;10.70;10.40;;;17.10;99.90;;;;;;5026530;28;20252;-88
2023/06/28 05:48:40;;;;;;;10.50;10.20;;;17.10;99.90;;;;;;5026953;28;20235;-88
2023/06/28 05:51:12;;;;;;;10.70;10.40;;;17.10;99.90;;;;;;5026862;28;20227;-88
2023/06/28 05:53:47;;;;;;;10.63;10.32;;;17.10;99.90;;;;;;5027318;28;20232;-88
2023/06/28 05:56:32;;;;;;;10.30;10.00;;;17.10;99.90;;;;;;5026516;28;20315;-90
2023/06/28 06:32:56;;;;;;;;;;;;;;;;;;;;;
2023/06/28 06:54:09;;;;;;;10.20;9.90;;;18.90;99.90;;;;;;4988705;28;20229;-84
2023/06/28 06:56:40;;;;;;;10.00;9.70;;;18.90;99.90;;;;;;5023100;28;20217;-84
2023/06/28 07:04:46;;;;;;;10.27;9.98;;;19.30;99.90;;;;;;5039569;28;20212;-86
2023/06/28 07:10:44;;;;;;;9.88;9.57;;;19.60;99.90;;;;;;5025909;28;20232;-85
2023/06/28 07:13:12;;;;;;;10.20;9.90;;;19.80;99.90;;;;;;5030819;28;20212;-87
2023/06/28 07:18:45;;;;;;;10.40;10.10;;;19.90;99.90;;;;;;5029418;28;20235;-86
2023/06/28 07:21:17;;;;;;;10.43;10.13;;;20.00;99.90;;;;;;5028808;28;20223;-86
2023/06/28 07:24:12;;;;;;;10.43;10.13;;;20.20;99.90;;;;;;5025822;28;20220;-85
2023/06/28 07:26:46;;;;;;;10.07;9.77;;;20.40;99.90;;;;;;5023739;28;20235;-87
2023/06/28 07:50:38;;;;;;;10.32;10.02;;;20.90;99.90;;;;;;4879267;29;20201;-86
2023/06/28 08:45:00;;;;;;;9.63;9.32;;;21.20;99.90;;;;;;5038687;28;20288;-89
2023/06/28 10:03:32;;;;;;;9.65;9.35;;;24.70;99.90;;;;;;5038242;28;20325;-77
2023/06/28 10:06:02;;;;;;;9.35;9.05;;;24.50;99.90;;;;;;5033635;28;20240;-77
2023/06/28 10:08:32;;;;;;;9.50;9.20;;;24.60;99.90;;;;;;5038638;28;20212;-77
2023/06/28 10:11:00;;;;;;;9.50;9.20;;;24.90;99.90;;;;;;5042114;28;20229;-76
2023/06/28 10:13:30;;;;;;;9.52;9.23;;;25.10;99.90;;;;;;5020077;28;20310;-76
2023/06/28 10:16:08;;;;;;;9.65;9.35;;;25.50;99.90;;;;;;5019256;28;20224;-76
2023/06/28 10:18:38;;;;;;;9.60;9.30;;;25.60;99.90;;;;;;5017696;28;20701;-77
2023/06/28 10:21:06;;;;;;;9.45;9.15;;;25.50;99.90;;;;;;5006030;28;20228;-76
2023/06/28 10:23:35;;;;;;;9.50;9.20;;;25.40;99.90;;;;;;5017692;28;20236;-76
2023/06/28 10:26:04;;;;;;;9.55;9.25;;;25.30;99.90;;;;;;5008263;28;20236;-76
2023/06/28 10:28:34;;;;;;;9.70;9.40;;;25.30;99.90;;;;;;5006123;28;20236;-76
2023/06/28 10:31:02;;;;;;;9.18;8.88;;;25.20;99.90;;;;;;5021038;28;20232;-76
2023/06/28 10:33:32;;;;;;;9.68;9.38;;;25.30;99.90;;;;;;5011170;28;20316;-77
2023/06/28 10:36:01;;;;;;;9.73;9.43;;;25.20;99.90;;;;;;5019095;28;20254;-77
2023/06/28 10:38:30;;;;;;;9.80;9.50;;;25.00;99.90;;;;;;5020094;28;20295;-75
2023/06/28 10:40:59;;;;;;;10.02;9.73;;;24.80;99.90;;;;;;5016211;28;20255;-77
2023/06/28 10:43:26;;;;;;;10.07;9.77;;;24.80;99.90;;;;;;5009285;28;20288;-75
2023/06/28 10:45:54;;;;;;;9.90;9.60;;;25.00;99.90;;;;;;5018771;28;20238;-77
2023/06/28 10:48:23;;;;;;;9.80;9.50;;;25.00;99.90;;;;;;5019511;28;20204;-76
2023/06/28 10:50:52;;;;;;;9.65;9.35;;;25.10;99.90;;;;;;5019151;28;20243;-76
2023/06/28 10:53:26;;;;;;;9.77;9.48;;;25.10;99.90;;;;;;5019694;28;20266;-75
2023/06/28 10:56:11;;;;;;;10.40;10.10;;;24.80;99.90;;;;;;5021703;28;20230;-76
2023/06/28 10:58:40;;;;;;;10.32;10.02;;;24.70;99.90;;;;;;5019834;28;20232;-77
2023/06/28 11:01:08;;;;;;;9.80;9.50;;;24.90;99.90;;;;;;5020291;28;20246;-76
2023/06/28 11:03:41;;;;;;;10.00;9.70;;;25.40;99.90;;;;;;5020101;28;20247;-77
2023/06/28 11:06:10;;;;;;;9.70;9.40;;;25.80;99.90;;;;;;5019547;28;20228;-76
2023/06/28 11:08:41;;;;;;;9.93;9.63;;;25.90;99.90;;;;;;5018749;28;20216;-76
2023/06/28 11:11:10;;;;;;;9.95;9.65;;;25.60;99.90;;;;;;5019754;28;20240;-77
2023/06/28 11:13:49;;;;;;;10.10;9.80;;;25.70;99.90;;;;;;5019722;28;20238;-77
2023/06/28 11:16:20;;;;;;;10.38;10.07;;;25.80;99.90;;;;;;5019770;28;20264;-76
2023/06/28 11:18:48;;;;;;;10.30;10.00;;;26.30;99.90;;;;;;5019785;28;20224;-79
2023/06/28 11:21:17;;;;;;;10.50;10.20;;;26.70;99.90;;;;;;5019984;28;20236;-77
2023/06/28 11:23:49;;;;;;;9.93;9.63;;;26.80;99.90;;;;;;5026672;28;20232;-71
2023/06/28 11:26:20;;;;;;;10.40;10.10;;;26.90;99.90;;;;;;5025859;28;20232;-76
2023/06/28 11:28:55;;;;;;;10.30;10.00;;;26.70;99.90;;;;;;5025001;28;20235;-76
2023/06/28 11:31:26;;;;;;;10.60;10.30;;;26.60;99.90;;;;;;5021756;28;20235;-76
2023/06/28 11:33:55;;;;;;;10.10;9.80;;;26.50;99.90;;;;;;5022647;28;20231;-76
2023/06/28 11:36:25;;;;;;;10.40;10.10;;;26.70;99.90;;;;;;5020607;28;20235;-76
2023/06/28 11:38:54;;;;;;;10.00;9.70;;;26.70;99.90;;;;;;5020147;28;20236;-76
2023/06/28 11:41:21;;;;;;;10.00;9.70;;;27.00;99.90;;;;;;5020437;28;20242;-77
2023/06/28 11:43:50;;;;;;;9.70;9.40;;;27.30;99.90;;;;;;5020153;28;20301;-76
2023/06/28 11:46:22;;;;;;;9.98;9.68;;;27.60;99.90;;;;;;5028672;28;20240;-76
2023/06/28 11:48:52;;;;;;;9.95;9.65;;;27.30;99.90;;;;;;5021808;28;20220;-76
2023/06/28 11:51:21;;;;;;;9.82;9.52;;;27.40;99.90;;;;;;5018142;28;20239;-76
2023/06/28 11:53:50;;;;;;;9.80;9.50;;;27.40;99.90;;;;;;5018683;28;20271;-76
2023/06/28 11:56:19;;;;;;;9.93;9.63;;;27.40;99.90;;;;;;5017984;28;20259;-76
2023/06/28 11:58:46;;;;;;;9.70;9.40;;;27.40;99.90;;;;;;5020108;28;20229;-76
2023/06/28 12:01:22;;;;;;;9.70;9.40;;;27.30;99.90;;;;;;5019096;28;20282;-76
2023/06/28 12:03:50;;;;;;;10.30;10.00;;;27.40;99.90;;;;;;5018028;28;20315;-77
2023/06/28 12:06:24;;;;;;;10.20;9.90;;;27.80;99.90;;;;;;5019108;28;20236;-76
2023/06/28 12:08:52;;;;;;;10.20;9.90;;;27.50;99.90;;;;;;5018493;28;20236;-76
2023/06/28 12:11:21;;;;;;;10.20;9.90;;;27.70;99.90;;;;;;5017959;28;20238;-77
2023/06/28 12:13:51;;;;;;;10.07;9.77;;;27.70;99.90;;;;;;5018863;28;20227;-76
2023/06/28 12:16:21;;;;;;;10.13;9.82;;;27.50;99.90;;;;;;5017588;28;20255;-76
2023/06/28 12:19:00;;;;;;;9.80;9.50;;;27.70;99.90;;;;;;5018681;28;20236;-76
2023/06/28 12:21:31;;;;;;;9.68;9.38;;;28.10;99.90;;;;;;5026925;28;20331;-77
2023/06/28 12:24:14;;;;;;;9.70;9.40;;;28.10;99.90;;;;;;5019235;28;20235;-75
2023/06/28 12:26:45;;;;;;;9.40;9.10;;;27.90;99.90;;;;;;5018754;28;20295;-75
2023/06/28 12:29:12;;;;;;;9.45;9.15;;;27.50;99.90;;;;;;5022560;28;20228;-77
2023/06/28 12:31:46;;;;;;;9.70;9.40;;;27.10;99.90;;;;;;5022174;28;20240;-77
2023/06/28 12:34:14;;;;;;;9.52;9.23;;;26.80;99.90;;;;;;5020725;28;20235;-75
2023/06/28 12:36:42;;;;;;;9.65;9.35;;;26.40;99.90;;;;;;5021301;28;20267;-78
2023/06/28 12:39:10;;;;;;;9.93;9.63;;;25.90;99.90;;;;;;5022061;28;20232;-77
2023/06/28 12:42:02;;;;;;;10.05;9.75;;;25.80;99.90;;;;;;5021233;28;20291;-76
2023/06/28 12:44:31;;;;;;;9.88;9.57;;;26.20;99.90;;;;;;5021327;28;20291;-77
2023/06/28 12:46:59;;;;;;;9.80;9.50;;;27.00;99.90;;;;;;5022454;28;20224;-75
2023/06/28 12:49:37;;;;;;;9.68;9.38;;;27.50;99.90;;;;;;5017501;28;20246;-76
2023/06/28 12:52:05;;;;;;;10.02;9.73;;;27.60;99.90;;;;;;5015650;28;20235;-76
2023/06/28 12:54:33;;;;;;;10.13;9.82;;;27.00;99.90;;;;;;5022970;28;20231;-77
2023/06/28 12:57:03;;;;;;;9.88;9.57;;;26.90;99.90;;;;;;5021406;28;20236;-77
2023/06/28 12:59:31;;;;;;;9.90;9.60;;;27.30;99.90;;;;;;5020544;28;20236;-78
2023/06/28 13:01:59;;;;;;;9.55;9.25;;;27.40;99.90;;;;;;5023735;28;20304;-77
2023/06/28 13:04:29;;;;;;;9.95;9.65;;;27.70;99.90;;;;;;5028445;28;20292;-77
2023/06/28 13:06:56;;;;;;;9.80;9.50;;;28.00;99.90;;;;;;5029259;28;20251;-77
2023/06/28 13:09:24;;;;;;;9.73;9.43;;;28.30;99.90;;;;;;5024520;28;20238;-77
2023/06/28 13:11:51;;;;;;;9.38;9.07;;;28.50;99.90;;;;;;5023410;28;20244;-76
2023/06/28 13:14:20;;;;;;;9.60;9.30;;;28.30;99.90;;;;;;5020282;28;20258;-75
2023/06/28 13:16:48;;;;;;;9.80;9.50;;;27.80;99.90;;;;;;5029910;28;20236;-77
2023/06/28 13:19:16;;;;;;;9.52;9.23;;;27.50;99.90;;;;;;5022059;28;20255;-77
2023/06/28 13:21:46;;;;;;;9.85;9.55;;;27.00;99.90;;;;;;5021770;28;20303;-77
2023/06/28 13:24:14;;;;;;;9.52;9.23;;;26.80;99.90;;;;;;5022300;28;20283;-77
2023/06/28 13:26:41;;;;;;;9.80;9.50;;;26.40;99.90;;;;;;5022434;28;20234;-76
2023/06/28 13:29:09;;;;;;;9.70;9.40;;;26.30;99.90;;;;;;5022400;28;20288;-77
2023/06/28 13:31:38;;;;;;;9.50;9.20;;;26.30;99.90;;;;;;5020965;28;20315;-76
2023/06/28 13:34:05;;;;;;;9.60;9.30;;;26.20;99.90;;;;;;5021061;28;20286;-77
2023/06/28 13:36:33;;;;;;;9.70;9.40;;;25.90;99.90;;;;;;5023542;28;20243;-80
2023/06/28 13:39:00;;;;;;;9.73;9.43;;;26.00;99.90;;;;;;5023064;28;20228;-76
2023/06/28 13:41:28;;;;;;;9.40;9.10;;;26.00;99.90;;;;;;5028831;28;20244;-79
2023/06/28 13:43:55;;;;;;;9.27;8.98;;;26.00;99.90;;;;;;5026863;28;20291;-77
2023/06/28 13:46:23;;;;;;;9.65;9.35;;;26.10;99.90;;;;;;5022503;28;20300;-77
2023/06/28 13:48:52;;;;;;;9.40;9.10;;;26.00;99.90;;;;;;5022038;28;20228;-77
2023/06/28 13:51:20;;;;;;;9.50;9.20;;;26.10;99.90;;;;;;5022089;28;20298;-78
2023/06/28 13:53:47;;;;;;;9.45;9.15;;;26.50;99.90;;;;;;5022076;28;20228;-77
2023/06/28 13:56:15;;;;;;;9.80;9.50;;;26.80;99.90;;;;;;5025603;28;20240;-77
2023/06/28 13:58:43;;;;;;;10.20;9.90;;;27.20;99.90;;;;;;5027564;28;20392;-77
2023/06/28 14:01:10;;;;;;;10.30;10.00;;;27.90;99.90;;;;;;5022336;28;20232;-77
2023/06/28 14:03:38;;;;;;;10.20;9.90;;;28.70;99.90;;;;;;5021535;28;20230;-75
2023/06/28 14:06:07;;;;;;;9.85;9.55;;;28.90;99.90;;;;;;5019764;28;20333;-74
2023/06/28 14:08:35;;;;;;;10.38;10.07;;;28.80;99.90;;;;;;5019566;28;20322;-75
2023/06/28 14:11:02;;;;;;;10.10;9.80;;;28.30;99.90;;;;;;5021016;28;20244;-75
2023/06/28 14:13:30;;;;;;;10.00;9.70;;;27.80;99.90;;;;;;5030301;28;20372;-76
2023/06/28 14:15:57;;;;;;;9.77;9.48;;;27.50;99.90;;;;;;5025682;28;20228;-76
2023/06/28 14:18:25;;;;;;;9.98;9.68;;;27.60;99.90;;;;;;5024041;28;20319;-75
2023/06/28 14:20:52;;;;;;;10.02;9.73;;;28.10;99.90;;;;;;5021481;28;20290;-76
2023/06/28 14:23:21;;;;;;;10.20;9.90;;;28.40;99.90;;;;;;5021702;28;20244;-77
2023/06/28 14:25:52;;;;;;;10.18;9.88;;;28.70;99.90;;;;;;5016456;28;20241;-77
2023/06/28 14:28:21;;;;;;;10.60;10.30;;;29.20;99.90;;;;;;5017853;28;20240;-77
2023/06/28 14:30:48;;;;;;;10.80;10.50;;;29.70;99.90;;;;;;5020516;28;20240;-78
2023/06/28 14:33:16;;;;;;;10.57;10.27;;;30.10;99.90;;;;;;5021678;28;20236;-78
2023/06/28 14:35:44;;;;;;;10.60;10.30;;;30.20;99.90;;;;;;5010207;28;20312;-76
2023/06/28 14:38:11;;;;;;;10.55;10.25;;;30.70;99.90;;;;;;5018797;28;20232;-77
2023/06/28 14:40:40;;;;;;;10.70;10.40;;;30.90;99.90;;;;;;5013150;28;20245;-77
2023/06/28 14:43:08;;;;;;;10.90;10.60;;;30.90;99.90;;;;;;5016775;28;20236;-78
2023/06/28 14:45:35;;;;;;;10.40;10.10;;;31.00;99.90;;;;;;5019402;28;20236;-77
2023/06/28 14:48:03;;;;;;;10.20;9.90;;;30.70;99.90;;;;;;5020095;28;20235;-78
2023/06/28 14:50:30;;;;;;;10.40;10.10;;;30.70;99.90;;;;;;5020304;28;20315;-80
2023/06/28 14:52:58;;;;;;;10.32;10.02;;;30.80;99.90;;;;;;5024673;28;20323;-80
2023/06/28 14:55:25;;;;;;;10.23;9.93;;;30.50;99.90;;;;;;5024898;28;20232;-79
2023/06/28 14:57:54;;;;;;;10.55;10.25;;;29.50;99.90;;;;;;5027280;28;20302;-79
2023/06/28 15:00:22;;;;;;;10.63;10.32;;;29.20;99.90;;;;;;5027604;28;20270;-78
2023/06/28 15:02:49;;;;;;;10.75;10.45;;;29.20;99.90;;;;;;5019710;28;20247;-80
2023/06/28 15:05:17;;;;;;;10.85;10.55;;;28.80;99.90;;;;;;5026533;28;20232;-78
2023/06/28 15:07:45;;;;;;;10.30;10.00;;;28.90;99.90;;;;;;5015789;28;20228;-78
2023/06/28 15:10:12;;;;;;;10.63;10.32;;;29.10;99.90;;;;;;5028988;28;20315;-78
2023/06/28 15:12:42;;;;;;;10.50;10.20;;;29.10;99.90;;;;;;5023823;28;20224;-78
2023/06/28 15:15:11;;;;;;;10.30;10.00;;;29.20;99.90;;;;;;5021064;28;20327;-78
2023/06/28 15:17:48;;;;;;;10.55;10.25;;;29.70;99.90;;;;;;5021141;28;20228;-77
2023/06/28 15:20:16;;;;;;;10.38;10.07;;;30.20;99.90;;;;;;5022970;28;20251;-78
2023/06/28 15:22:47;;;;;;;10.30;10.00;;;30.40;99.90;;;;;;5023040;28;20264;-78
2023/06/28 15:25:24;;;;;;;10.40;10.10;;;30.80;99.90;;;;;;5027849;28;20228;-78
2023/06/28 15:27:52;;;;;;;10.40;10.10;;;31.10;99.90;;;;;;5024319;28;20228;-79
2023/06/28 15:30:21;;;;;;;10.50;10.20;;;30.90;99.90;;;;;;5024098;28;20268;-78
2023/06/28 15:32:49;;;;;;;10.20;9.90;;;30.60;99.90;;;;;;5023070;28;20242;-79
2023/06/28 15:35:16;;;;;;;10.43;10.13;;;30.60;99.90;;;;;;5027104;28;20240;-79
2023/06/28 15:37:44;;;;;;;10.50;10.20;;;30.20;99.90;;;;;;5025362;28;20275;-78
2023/06/28 15:40:12;;;;;;;10.60;10.30;;;29.80;99.90;;;;;;5024573;28;20327;-78
2023/06/28 15:42:40;;;;;;;10.50;10.20;;;29.70;99.90;;;;;;5028078;28;20232;-77
2023/06/28 15:45:10;;;;;;;10.43;10.13;;;30.00;99.90;;;;;;5022913;28;20322;-78
2023/06/28 15:47:39;;;;;;;10.35;10.05;;;29.80;99.90;;;;;;5022622;28;20223;-77
2023/06/28 15:50:29;;;;;;;10.30;10.00;;;29.80;99.90;;;;;;5025691;28;20283;-77
2023/06/28 15:52:57;;;;;;;10.38;10.07;;;29.50;99.90;;;;;;5028384;28;20239;-77
2023/06/28 15:55:26;;;;;;;10.40;10.10;;;28.80;99.90;;;;;;5019742;28;20224;-77
2023/06/28 15:57:54;;;;;;;10.35;10.05;;;28.80;99.90;;;;;;5019925;28;20224;-78
2023/06/28 16:00:24;;;;;;;10.45;10.15;;;28.70;99.90;;;;;;5019686;28;20259;-78
2023/06/28 16:02:54;;;;;;;10.07;9.77;;;28.60;99.90;;;;;;5002706;28;20235;-78
2023/06/28 16:05:22;;;;;;;10.30;10.00;;;28.40;99.90;;;;;;5020299;28;20315;-79
2023/06/28 16:07:51;;;;;;;10.40;10.10;;;28.20;99.90;;;;;;5022930;28;20235;-77
2023/06/28 16:10:21;;;;;;;10.23;9.93;;;28.20;99.90;;;;;;5009005;28;20239;-78
2023/06/28 16:12:49;;;;;;;10.02;9.73;;;28.40;99.90;;;;;;5021217;28;20236;-79
2023/06/28 16:15:17;;;;;;;9.90;9.60;;;28.50;99.90;;;;;;5019594;28;20240;-77
2023/06/28 16:17:45;;;;;;;9.70;9.40;;;28.20;99.90;;;;;;5021229;28;20230;-79
2023/06/28 16:20:15;;;;;;;9.13;8.93;;;28.20;99.90;;;;;;5024788;28;20246;-80
2023/06/28 16:22:43;;;;;;;9.70;9.40;;;28.10;99.90;;;;;;5023606;28;20228;-79
2023/06/28 16:25:11;;;;;;;9.82;9.52;;;28.00;99.90;;;;;;5020782;28;20240;-78
2023/06/28 16:27:40;;;;;;;9.70;9.40;;;27.90;99.90;;;;;;5020602;28;20228;-77
2023/06/28 16:30:09;;;;;;;9.80;9.50;;;27.70;99.90;;;;;;5020538;28;20236;-78
2023/06/28 16:32:45;;;;;;;9.48;9.18;;;27.40;99.90;;;;;;5025606;28;20212;-78
2023/06/28 16:35:23;;;;;;;9.90;9.60;;;27.40;99.90;;;;;;5040072;28;20243;-77
2023/06/28 16:37:59;;;;;;;9.82;9.52;;;27.40;99.90;;;;;;5441663;22;20241;-76